createdAt,value
2018-09-24T00:00:27.611Z,7.28
2018-09-24T00:01:27.611Z,7.33
2018-09-24T00:02:27.585Z,7.32
2018-09-24T00:03:27.579Z,7.23
2018-09-24T00:04:27.560Z,7.23
2018-09-24T00:05:27.552Z,7.36
2018-09-24T00:06:27.580Z,7.32
2018-09-24T00:07:27.545Z,7.20
2018-09-24T00:08:27.526Z,7.35
2018-09-24T00:09:27.503Z,7.38
2018-09-24T00:10:27.499Z,7.28
2018-09-24T00:11:27.505Z,7.33
2018-09-24T00:12:27.489Z,7.35
2018-09-24T00:13:27.466Z,7.29
2018-09-24T00:14:27.448Z,7.36
2018-09-24T00:15:27.447Z,7.39
2018-09-24T00:16:27.442Z,7.31
2018-09-24T00:17:27.412Z,7.23
2018-09-24T00:18:27.426Z,7.32
2018-09-24T00:19:27.417Z,7.29
2018-09-24T00:20:27.379Z,7.42
2018-09-24T00:21:27.385Z,7.31
2018-09-24T00:22:27.402Z,7.40
2018-09-24T00:23:27.374Z,7.39
2018-09-24T00:24:27.342Z,7.39
2018-09-24T00:25:27.340Z,7.40
2018-09-24T00:26:27.316Z,7.38
2018-09-24T00:27:27.340Z,7.36
2018-09-24T00:28:27.311Z,7.31
2018-09-24T00:29:27.293Z,7.28
2018-09-24T00:30:27.271Z,7.29
2018-09-24T00:31:27.268Z,7.32
2018-09-24T00:32:27.256Z,7.40
2018-09-24T00:33:27.419Z,7.36
2018-09-24T00:34:27.228Z,7.38
2018-09-24T00:35:27.225Z,7.36
2018-09-24T00:36:27.206Z,7.38
2018-09-24T00:37:27.220Z,7.40
2018-09-24T00:38:27.207Z,7.40
2018-09-24T00:39:27.181Z,7.33
2018-09-24T00:40:27.162Z,7.25
2018-09-24T00:41:27.159Z,7.36
2018-09-24T00:42:27.136Z,7.33
2018-09-24T00:43:27.268Z,7.35
2018-09-24T00:44:27.134Z,7.33
2018-09-24T00:45:27.105Z,7.24
2018-09-24T00:46:27.105Z,7.23
2018-09-24T00:47:27.082Z,7.20
2018-09-24T00:48:27.115Z,7.21
2018-09-24T00:49:27.062Z,7.23
2018-09-24T00:50:27.047Z,7.24
2018-09-24T00:51:27.049Z,7.24
2018-09-24T00:52:27.037Z,7.11
2018-09-24T00:53:27.040Z,7.13
2018-09-24T00:54:27.000Z,7.15
2018-09-24T00:55:26.990Z,7.03
2018-09-24T00:56:26.978Z,6.96
2018-09-24T00:57:26.973Z,6.93
2018-09-24T00:58:27.016Z,6.93
2018-09-24T00:59:26.984Z,6.97
2018-09-24T01:00:26.940Z,7.00
2018-09-24T01:01:26.935Z,6.93
2018-09-24T01:02:26.916Z,6.99
2018-09-24T01:03:26.931Z,6.97
2018-09-24T01:04:26.898Z,6.89
2018-09-24T01:05:26.885Z,6.96
2018-09-24T01:06:26.878Z,6.95
2018-09-24T01:07:26.863Z,6.95
2018-09-24T01:08:26.890Z,6.97
2018-09-24T01:09:26.837Z,6.96
2018-09-24T01:10:26.832Z,6.95
2018-09-24T01:11:26.816Z,6.95
2018-09-24T01:12:26.803Z,6.97
2018-09-24T01:13:26.798Z,6.84
2018-09-24T01:14:26.811Z,6.95
2018-09-24T01:15:26.768Z,6.89
2018-09-24T01:16:26.773Z,6.88
2018-09-24T01:17:26.748Z,6.95
2018-09-24T01:18:26.755Z,6.99
2018-09-24T01:19:26.730Z,6.89
2018-09-24T01:20:26.741Z,6.99
2018-09-24T01:21:26.726Z,7.06
2018-09-24T01:22:26.712Z,6.95
2018-09-24T01:23:26.686Z,6.99
2018-09-24T01:24:26.672Z,7.03
2018-09-24T01:25:26.681Z,7.07
2018-09-24T01:26:26.651Z,7.07
2018-09-24T01:27:26.642Z,7.11
2018-09-24T01:28:26.632Z,7.18
2018-09-24T01:29:26.617Z,7.06
2018-09-24T01:30:26.624Z,7.21
2018-09-24T01:31:26.596Z,7.21
2018-09-24T01:32:26.586Z,7.20
2018-09-24T01:33:26.577Z,7.17
2018-09-24T01:34:26.599Z,7.18
2018-09-24T01:35:26.585Z,7.18
2018-09-24T01:36:26.542Z,7.13
2018-09-24T01:37:26.534Z,7.15
2018-09-24T01:38:26.528Z,7.18
2018-09-24T01:39:26.527Z,7.23
2018-09-24T01:40:26.529Z,7.21
2018-09-24T01:41:26.484Z,7.32
2018-09-24T01:42:26.471Z,7.33
2018-09-24T01:44:27.593Z,7.33
2018-09-24T01:45:26.460Z,7.39
2018-09-24T01:46:26.448Z,7.23
2018-09-24T01:47:26.428Z,7.32
2018-09-24T01:48:26.415Z,7.32
2018-09-24T01:49:26.396Z,7.31
2018-09-24T01:50:26.405Z,7.33
2018-09-24T01:51:26.378Z,7.31
2018-09-24T01:52:26.377Z,7.33
2018-09-24T01:53:26.354Z,7.25
2018-09-24T01:54:26.368Z,7.23
2018-09-24T01:55:26.352Z,7.20
2018-09-24T01:56:26.346Z,7.28
2018-09-24T01:57:26.319Z,7.24
2018-09-24T01:58:26.296Z,7.25
2018-09-24T01:59:26.287Z,7.25
2018-09-24T02:00:26.278Z,7.18
2018-09-24T02:01:26.284Z,7.20
2018-09-24T02:03:27.409Z,7.13
2018-09-24T02:04:26.229Z,7.15
2018-09-24T02:05:26.219Z,7.17
2018-09-24T02:06:26.228Z,7.17
2018-09-24T02:07:26.204Z,7.10
2018-09-24T02:08:26.201Z,7.15
2018-09-24T02:09:26.179Z,7.14
2018-09-24T02:10:26.167Z,7.00
2018-09-24T02:11:26.177Z,7.02
2018-09-24T02:12:26.165Z,7.10
2018-09-24T02:13:26.136Z,7.02
2018-09-24T02:14:26.124Z,6.96
2018-09-24T02:15:26.112Z,7.03
2018-09-24T02:16:26.103Z,6.97
2018-09-24T02:17:26.166Z,6.96
2018-09-24T02:18:26.084Z,6.96
2018-09-24T02:19:26.065Z,6.93
2018-09-24T02:20:26.083Z,7.00
2018-09-24T02:21:26.046Z,6.97
2018-09-24T02:22:26.070Z,6.97
2018-09-24T02:23:26.024Z,6.97
2018-09-24T02:25:27.188Z,6.92
2018-09-24T02:26:25.993Z,6.95
2018-09-24T02:27:26.024Z,6.96
2018-09-24T02:28:25.970Z,6.93
2018-09-24T02:29:25.964Z,6.92
2018-09-24T02:30:25.946Z,6.87
2018-09-24T02:31:25.934Z,6.92
2018-09-24T02:32:25.941Z,6.89
2018-09-24T02:33:25.919Z,6.89
2018-09-24T02:34:25.905Z,6.88
2018-09-24T02:35:25.895Z,6.97
2018-09-24T02:36:25.892Z,6.89
2018-09-24T02:37:25.893Z,6.93
2018-09-24T02:38:25.854Z,6.88
2018-09-24T02:39:25.851Z,6.89
2018-09-24T02:40:25.846Z,6.88
2018-09-24T02:41:25.830Z,6.97
2018-09-24T02:42:25.827Z,6.88
2018-09-24T02:43:25.807Z,6.82
2018-09-24T02:44:25.796Z,6.81
2018-09-24T02:45:25.783Z,6.82
2018-09-24T02:46:25.778Z,6.78
2018-09-24T02:47:25.880Z,6.78
2018-09-24T02:48:25.743Z,6.78
2018-09-24T02:49:25.748Z,6.81
2018-09-24T02:50:25.725Z,6.78
2018-09-24T02:51:25.722Z,6.75
2018-09-24T02:52:25.731Z,6.81
2018-09-24T02:53:25.707Z,6.79
2018-09-24T02:54:25.677Z,6.75
2018-09-24T02:55:25.670Z,6.75
2018-09-24T02:57:26.823Z,6.79
2018-09-24T02:58:25.647Z,6.79
2018-09-24T02:59:25.634Z,6.79
2018-09-24T03:00:25.630Z,6.69
2018-09-24T03:01:25.731Z,6.64
2018-09-24T03:02:25.617Z,6.67
2018-09-24T03:03:25.583Z,6.66
2018-09-24T03:04:25.573Z,6.63
2018-09-24T03:05:25.556Z,6.66
2018-09-24T03:06:25.548Z,6.67
2018-09-24T03:07:25.564Z,6.60
2018-09-24T03:08:25.536Z,6.60
2018-09-24T03:09:25.524Z,6.59
2018-09-24T03:10:25.512Z,6.62
2018-09-24T03:11:25.493Z,6.54
2018-09-24T03:12:25.568Z,6.54
2018-09-24T03:13:25.475Z,6.62
2018-09-24T03:14:25.466Z,6.60
2018-09-24T03:15:25.461Z,6.59
2018-09-24T03:16:25.462Z,6.57
2018-09-24T03:17:25.479Z,6.49
2018-09-24T03:18:25.424Z,6.64
2018-09-24T03:19:25.400Z,6.56
2018-09-24T03:20:25.402Z,6.62
2018-09-24T03:21:25.394Z,6.39
2018-09-24T03:22:25.390Z,6.54
2018-09-24T03:24:26.488Z,6.52
2018-09-24T03:25:25.344Z,6.49
2018-09-24T03:26:25.379Z,6.52
2018-09-24T03:27:25.351Z,6.51
2018-09-24T03:28:25.300Z,6.45
2018-09-24T03:29:25.300Z,6.45
2018-09-24T03:30:25.290Z,6.46
2018-09-24T03:31:25.284Z,6.51
2018-09-24T03:32:25.281Z,6.52
2018-09-24T03:33:25.258Z,6.52
2018-09-24T03:34:25.239Z,6.48
2018-09-24T03:36:26.361Z,6.51
2018-09-24T03:37:25.242Z,6.42
2018-09-24T03:38:25.276Z,6.51
2018-09-24T03:40:26.333Z,6.49
2018-09-24T03:41:25.160Z,6.46
2018-09-24T03:42:25.194Z,6.45
2018-09-24T03:43:25.181Z,6.44
2018-09-24T03:44:25.134Z,6.45
2018-09-24T03:45:25.156Z,6.52
2018-09-24T03:46:25.107Z,6.44
2018-09-24T03:47:25.102Z,6.46
2018-09-24T03:49:26.210Z,6.49
2018-09-24T03:50:25.065Z,6.49
2018-09-24T03:51:25.074Z,6.49
2018-09-24T03:52:25.085Z,6.62
2018-09-24T03:53:25.060Z,6.56
2018-09-24T03:54:25.026Z,6.75
2018-09-24T03:55:25.035Z,6.70
2018-09-24T03:56:25.009Z,6.87
2018-09-24T03:57:24.988Z,6.82
2018-09-24T03:58:25.013Z,6.84
2018-09-24T03:59:24.983Z,6.95
2018-09-24T04:00:24.965Z,6.97
2018-09-24T04:01:24.941Z,6.93
2018-09-24T04:02:24.928Z,6.89
2018-09-24T04:03:24.951Z,6.96
2018-09-24T04:04:24.932Z,6.88
2018-09-24T04:06:26.050Z,6.78
2018-09-24T04:07:24.877Z,6.78
2018-09-24T04:08:24.874Z,6.72
2018-09-24T04:09:24.905Z,6.70
2018-09-24T04:10:24.840Z,6.78
2018-09-24T04:12:24.821Z,6.56
2018-09-24T04:13:24.819Z,6.66
2018-09-24T04:14:24.820Z,6.63
2018-09-24T04:15:24.786Z,6.62
2018-09-24T04:16:24.781Z,6.56
2018-09-24T04:17:24.779Z,6.54
2018-09-24T04:18:24.763Z,6.54
2018-09-24T04:19:24.783Z,6.48
2018-09-24T04:20:24.733Z,6.48
2018-09-24T04:21:24.720Z,6.46
2018-09-24T04:22:24.723Z,6.44
2018-09-24T04:23:24.702Z,6.44
2018-09-24T04:24:24.713Z,6.46
2018-09-24T04:25:24.685Z,6.49
2018-09-24T04:26:24.806Z,6.48
2018-09-24T04:27:24.664Z,6.41
2018-09-24T04:28:24.655Z,6.42
2018-09-24T04:29:24.673Z,6.36
2018-09-24T04:30:24.621Z,6.27
2018-09-24T04:31:24.611Z,6.28
2018-09-24T04:32:24.609Z,6.35
2018-09-24T04:33:24.590Z,6.26
2018-09-24T04:34:24.620Z,6.24
2018-09-24T04:35:24.576Z,6.30
2018-09-24T04:36:24.558Z,6.26
2018-09-24T04:37:24.547Z,6.28
2018-09-24T04:38:24.536Z,6.22
2018-09-24T04:39:24.543Z,6.20
2018-09-24T04:40:24.556Z,6.17
2018-09-24T04:41:24.511Z,6.20
2018-09-24T04:42:24.490Z,6.12
2018-09-24T04:43:24.489Z,6.19
2018-09-24T04:44:24.467Z,6.14
2018-09-24T04:45:24.490Z,6.20
2018-09-24T04:46:24.444Z,6.09
2018-09-24T04:47:24.469Z,6.22
2018-09-24T04:48:24.428Z,6.11
2018-09-24T04:49:24.419Z,6.07
2018-09-24T04:50:24.447Z,6.01
2018-09-24T04:51:24.392Z,6.16
2018-09-24T04:52:24.377Z,6.05
2018-09-24T04:53:24.366Z,6.12
2018-09-24T04:54:24.379Z,5.97
2018-09-24T04:55:24.377Z,5.99
2018-09-24T04:56:24.339Z,5.99
2018-09-24T04:57:24.351Z,6.01
2018-09-24T04:58:24.321Z,5.99
2018-09-24T04:59:24.305Z,5.94
2018-09-24T05:00:24.291Z,5.93
2018-09-24T05:01:24.328Z,5.94
2018-09-24T05:02:24.274Z,5.93
2018-09-24T05:03:24.264Z,6.04
2018-09-24T05:04:24.260Z,6.05
2018-09-24T05:05:24.249Z,6.05
2018-09-24T05:06:24.252Z,6.05
2018-09-24T05:07:24.221Z,6.08
2018-09-24T05:08:24.230Z,6.11
2018-09-24T05:09:24.193Z,6.08
2018-09-24T05:10:24.186Z,6.14
2018-09-24T05:11:24.189Z,6.07
2018-09-24T05:12:24.158Z,6.08
2018-09-24T05:13:24.161Z,6.16
2018-09-24T05:14:24.149Z,6.08
2018-09-24T05:15:24.139Z,6.05
2018-09-24T05:16:24.198Z,6.09
2018-09-24T05:17:24.139Z,6.07
2018-09-24T05:18:24.115Z,6.09
2018-09-24T05:19:24.090Z,6.11
2018-09-24T05:20:24.072Z,6.20
2018-09-24T05:21:24.080Z,6.20
2018-09-24T05:22:24.063Z,6.20
2018-09-24T05:23:24.040Z,6.16
2018-09-24T05:24:24.025Z,6.24
2018-09-24T05:25:24.017Z,6.27
2018-09-24T05:26:24.095Z,6.19
2018-09-24T05:27:24.100Z,6.17
2018-09-24T05:28:24.005Z,6.26
2018-09-24T05:29:23.991Z,6.26
2018-09-24T05:30:23.973Z,6.33
2018-09-24T05:31:23.974Z,6.27
2018-09-24T05:32:23.984Z,6.27
2018-09-24T05:33:23.972Z,6.28
2018-09-24T05:34:23.980Z,6.33
2018-09-24T05:35:23.921Z,6.30
2018-09-24T05:36:23.924Z,6.35
2018-09-24T05:37:23.886Z,6.36
2018-09-24T05:38:23.879Z,6.42
2018-09-24T05:39:23.872Z,6.41
2018-09-24T05:40:23.864Z,6.28
2018-09-24T05:41:23.926Z,6.42
2018-09-24T05:42:23.835Z,6.38
2018-09-24T05:43:23.822Z,6.38
2018-09-24T05:44:23.808Z,6.42
2018-09-24T05:45:23.802Z,6.39
2018-09-24T05:46:23.793Z,6.45
2018-09-24T05:47:23.796Z,6.54
2018-09-24T05:48:23.767Z,6.49
2018-09-24T05:49:23.765Z,6.48
2018-09-24T05:50:23.751Z,6.45
2018-09-24T05:51:23.726Z,6.49
2018-09-24T05:52:23.751Z,6.51
2018-09-24T05:53:23.718Z,6.49
2018-09-24T05:54:23.830Z,6.48
2018-09-24T05:55:23.691Z,6.49
2018-09-24T05:56:23.686Z,6.46
2018-09-24T05:57:23.792Z,6.46
2018-09-24T05:58:23.653Z,6.52
2018-09-24T05:59:23.677Z,6.48
2018-09-24T06:00:23.632Z,6.49
2018-09-24T06:01:23.632Z,6.45
2018-09-24T06:02:23.629Z,6.51
2018-09-24T06:03:23.606Z,6.52
2018-09-24T06:04:23.673Z,6.59
2018-09-24T06:05:23.577Z,6.51
2018-09-24T06:06:23.569Z,6.54
2018-09-24T06:07:23.615Z,6.57
2018-09-24T06:08:23.547Z,6.60
2018-09-24T06:09:23.536Z,6.56
2018-09-24T06:10:23.525Z,6.63
2018-09-24T06:11:23.547Z,6.56
2018-09-24T06:12:23.523Z,6.57
2018-09-24T06:13:23.493Z,6.62
2018-09-24T06:14:23.482Z,6.66
2018-09-24T06:15:23.479Z,6.70
2018-09-24T06:16:23.456Z,6.63
2018-09-24T06:17:23.471Z,6.72
2018-09-24T06:18:23.442Z,6.66
2018-09-24T06:19:23.421Z,6.72
2018-09-24T06:20:23.426Z,6.72
2018-09-24T06:21:23.421Z,6.75
2018-09-24T06:22:23.405Z,6.79
2018-09-24T06:23:23.405Z,6.93
2018-09-24T06:24:23.369Z,6.96
2018-09-24T06:25:23.359Z,6.85
2018-09-24T06:26:23.347Z,6.93
2018-09-24T06:27:23.340Z,6.97
2018-09-24T06:28:23.381Z,6.99
2018-09-24T06:29:23.327Z,7.03
2018-09-24T06:30:23.323Z,7.13
2018-09-24T06:31:23.325Z,7.15
2018-09-24T06:32:23.309Z,7.20
2018-09-24T06:33:23.313Z,7.25
2018-09-24T06:34:23.324Z,7.31
2018-09-24T06:35:23.265Z,7.23
2018-09-24T06:36:23.242Z,7.35
2018-09-24T06:37:23.312Z,7.33
2018-09-24T06:38:23.230Z,7.28
2018-09-24T06:39:23.222Z,7.38
2018-09-24T06:40:23.198Z,7.31
2018-09-24T06:41:23.193Z,7.39
2018-09-24T06:42:23.173Z,7.39
2018-09-24T06:43:23.181Z,7.54
2018-09-24T06:44:23.148Z,7.53
2018-09-24T06:45:23.146Z,7.60
2018-09-24T06:46:23.137Z,7.54
2018-09-24T06:47:23.129Z,7.66
2018-09-24T06:48:23.214Z,7.63
2018-09-24T06:49:23.091Z,7.61
2018-09-24T06:50:23.085Z,7.73
2018-09-24T06:51:23.083Z,7.66
2018-09-24T06:52:23.078Z,7.73
2018-09-24T06:53:23.093Z,7.73
2018-09-24T06:54:23.038Z,7.76
2018-09-24T06:55:23.027Z,7.82
2018-09-24T06:56:23.034Z,7.79
2018-09-24T06:57:23.011Z,7.85
2018-09-24T06:58:23.018Z,7.97
2018-09-24T06:59:23.021Z,8.00
2018-09-24T07:00:22.990Z,8.01
2018-09-24T07:01:22.961Z,7.98
2018-09-24T07:02:22.958Z,8.08
2018-09-24T07:03:22.946Z,8.08
2018-09-24T07:04:22.957Z,8.13
2018-09-24T07:05:23.019Z,8.24
2018-09-24T07:06:22.917Z,8.18
2018-09-24T07:07:22.891Z,8.27
2018-09-24T07:08:22.881Z,8.33
2018-09-24T07:09:22.904Z,8.28
2018-09-24T07:10:22.886Z,8.44
2018-09-24T07:11:22.958Z,8.41
2018-09-24T07:12:22.849Z,8.42
2018-09-24T07:13:22.828Z,8.41
2018-09-24T07:14:22.863Z,8.51
2018-09-24T07:15:22.818Z,8.55
2018-09-24T07:16:22.823Z,8.55
2018-09-24T07:17:22.783Z,8.55
2018-09-24T07:18:22.767Z,8.60
2018-09-24T07:19:22.810Z,8.70
2018-09-24T07:20:22.744Z,8.73
2018-09-24T07:21:22.783Z,8.71
2018-09-24T07:22:22.723Z,8.64
2018-09-24T07:23:22.733Z,8.64
2018-09-24T07:24:22.741Z,8.76
2018-09-24T07:25:22.714Z,8.70
2018-09-24T07:26:22.683Z,8.76
2018-09-24T07:27:22.668Z,8.74
2018-09-24T07:28:22.696Z,8.76
2018-09-24T07:29:22.660Z,8.74
2018-09-24T07:30:22.678Z,8.81
2018-09-24T07:31:22.631Z,8.78
2018-09-24T07:32:22.624Z,8.97
2018-09-24T07:33:22.659Z,8.94
2018-09-24T07:34:22.596Z,8.95
2018-09-24T07:35:22.600Z,9.00
2018-09-24T07:36:22.581Z,9.02
2018-09-24T07:37:22.568Z,9.06
2018-09-24T07:38:22.558Z,9.03
2018-09-24T07:39:22.564Z,9.16
2018-09-24T07:40:22.549Z,9.28
2018-09-24T07:41:22.535Z,9.31
2018-09-24T07:42:22.510Z,9.43
2018-09-24T07:43:22.582Z,9.48
2018-09-24T07:44:22.495Z,9.65
2018-09-24T07:45:22.464Z,9.72
2018-09-24T07:46:22.493Z,9.74
2018-09-24T07:47:22.447Z,9.87
2018-09-24T07:48:22.439Z,9.94
2018-09-24T07:49:22.458Z,9.92
2018-09-24T07:50:22.413Z,10.02
2018-09-24T07:51:22.445Z,9.98
2018-09-24T07:52:22.398Z,10.13
2018-09-24T07:53:22.385Z,10.23
2018-09-24T07:55:23.530Z,10.37
2018-09-24T07:56:22.384Z,10.37
2018-09-24T07:57:22.331Z,10.44
2018-09-24T07:58:22.326Z,10.41
2018-09-24T07:59:22.322Z,10.48
2018-09-24T08:00:22.312Z,10.72
2018-09-24T08:01:22.322Z,10.89
2018-09-24T08:02:22.282Z,10.96
2018-09-24T08:03:22.284Z,11.35
2018-09-24T08:04:22.274Z,11.75
2018-09-24T08:05:22.275Z,12.04
2018-09-24T08:06:22.268Z,12.37
2018-09-24T08:07:22.275Z,12.60
2018-09-24T08:08:22.209Z,12.93
2018-09-24T08:09:22.213Z,12.94
2018-09-24T08:10:22.200Z,12.87
2018-09-24T08:11:22.202Z,12.97
2018-09-24T08:12:22.197Z,12.90
2018-09-24T08:13:22.245Z,12.68
2018-09-24T08:14:22.155Z,12.76
2018-09-24T08:15:22.150Z,12.98
2018-09-24T08:16:22.163Z,12.98
2018-09-24T08:17:22.118Z,13.01
2018-09-24T08:18:22.114Z,12.91
2018-09-24T08:19:22.098Z,12.57
2018-09-24T08:20:22.089Z,12.79
2018-09-24T08:21:22.106Z,13.16
2018-09-24T08:22:22.087Z,13.30
2018-09-24T08:23:22.063Z,13.46
2018-09-24T08:24:22.034Z,13.56
2018-09-24T08:25:22.031Z,13.37
2018-09-24T08:26:22.030Z,13.20
2018-09-24T08:27:22.037Z,13.38
2018-09-24T08:28:22.002Z,13.68
2018-09-24T08:29:21.990Z,14.03
2018-09-24T08:30:21.971Z,14.12
2018-09-24T08:31:21.958Z,14.11
2018-09-24T08:32:21.979Z,14.07
2018-09-24T08:33:21.947Z,14.23
2018-09-24T08:34:21.933Z,14.30
2018-09-24T08:35:21.925Z,14.37
2018-09-24T08:36:21.935Z,14.37
2018-09-24T08:37:21.924Z,14.54
2018-09-24T08:38:21.894Z,14.55
2018-09-24T08:39:21.885Z,14.53
2018-09-24T08:40:21.879Z,14.50
2018-09-24T08:41:21.858Z,14.11
2018-09-24T08:42:21.857Z,13.81
2018-09-24T08:43:21.830Z,13.68
2018-09-24T08:44:21.815Z,13.50
2018-09-24T08:45:21.829Z,13.33
2018-09-24T08:46:21.817Z,13.27
2018-09-24T08:47:21.818Z,13.28
2018-09-24T08:48:21.798Z,13.57
2018-09-24T08:49:21.770Z,13.62
2018-09-24T08:50:21.756Z,13.67
2018-09-24T08:51:21.739Z,13.52
2018-09-24T08:52:21.751Z,13.27
2018-09-24T08:53:21.790Z,13.15
2018-09-24T08:54:21.712Z,13.08
2018-09-24T08:55:21.753Z,12.98
2018-09-24T08:56:21.698Z,12.91
2018-09-24T08:57:21.775Z,12.98
2018-09-24T08:58:21.698Z,12.95
2018-09-24T08:59:21.653Z,13.00
2018-09-24T09:00:21.638Z,13.16
2018-09-24T09:01:21.632Z,13.31
2018-09-24T09:02:21.637Z,13.42
2018-09-24T09:03:21.633Z,13.28
2018-09-24T09:04:21.597Z,13.33
2018-09-24T09:05:21.600Z,13.37
2018-09-24T09:06:21.590Z,13.18
2018-09-24T09:07:21.566Z,13.18
2018-09-24T09:08:21.736Z,13.13
2018-09-24T09:09:21.569Z,13.12
2018-09-24T09:10:21.540Z,13.04
2018-09-24T09:11:21.520Z,13.03
2018-09-24T09:12:21.516Z,13.01
2018-09-24T09:13:21.514Z,13.08
2018-09-24T09:14:21.506Z,13.04
2018-09-24T09:15:21.519Z,13.12
2018-09-24T09:16:21.491Z,13.28
2018-09-24T09:17:21.451Z,13.62
2018-09-24T09:18:21.479Z,13.79
2018-09-24T09:19:21.435Z,14.03
2018-09-24T09:21:22.557Z,13.95
2018-09-24T09:22:21.397Z,13.79
2018-09-24T09:23:21.408Z,13.59
2018-09-24T09:24:21.377Z,13.41
2018-09-24T09:25:21.374Z,13.52
2018-09-24T09:26:21.377Z,13.46
2018-09-24T09:27:21.353Z,13.41
2018-09-24T09:28:21.381Z,13.42
2018-09-24T09:29:21.342Z,13.57
2018-09-24T09:30:21.314Z,13.79
2018-09-24T09:31:21.318Z,14.10
2018-09-24T09:32:21.325Z,14.15
2018-09-24T09:33:21.304Z,14.17
2018-09-24T09:34:21.274Z,14.18
2018-09-24T09:35:21.339Z,13.90
2018-09-24T09:36:21.267Z,13.68
2018-09-24T09:37:21.243Z,13.60
2018-09-24T09:38:21.361Z,13.53
2018-09-24T09:39:21.268Z,13.49
2018-09-24T09:40:21.205Z,13.56
2018-09-24T09:41:21.212Z,13.56
2018-09-24T09:42:21.189Z,13.57
2018-09-24T09:43:21.210Z,13.93
2018-09-24T09:44:21.165Z,14.04
2018-09-24T09:45:21.156Z,14.00
2018-09-24T09:46:21.141Z,14.05
2018-09-24T09:48:22.284Z,13.97
2018-09-24T09:49:21.133Z,13.99
2018-09-24T09:50:21.104Z,14.17
2018-09-24T09:51:21.091Z,14.37
2018-09-24T09:52:21.077Z,14.79
2018-09-24T09:53:21.066Z,14.73
2018-09-24T09:54:21.096Z,14.41
2018-09-24T09:55:21.065Z,14.45
2018-09-24T09:56:21.022Z,14.60
2018-09-24T09:57:21.015Z,14.55
2018-09-24T09:58:21.018Z,14.28
2018-09-24T09:59:21.051Z,14.35
2018-09-24T10:00:21.020Z,14.23
2018-09-24T10:01:20.983Z,14.12
2018-09-24T10:02:20.973Z,14.12
2018-09-24T10:03:20.958Z,14.18
2018-09-24T10:04:20.970Z,14.73
2018-09-24T10:05:20.932Z,15.09
2018-09-24T10:06:20.924Z,15.36
2018-09-24T10:07:20.907Z,15.47
2018-09-24T10:08:20.903Z,15.68
2018-09-24T10:09:20.904Z,15.95
2018-09-24T10:10:20.871Z,16.20
2018-09-24T10:11:20.902Z,16.43
2018-09-24T10:12:20.880Z,16.60
2018-09-24T10:13:20.838Z,16.57
2018-09-24T10:14:20.852Z,16.42
2018-09-24T10:15:20.824Z,16.24
2018-09-24T10:16:20.839Z,16.38
2018-09-24T10:17:20.808Z,16.57
2018-09-24T10:18:20.792Z,16.53
2018-09-24T10:19:20.819Z,16.49
2018-09-24T10:20:20.800Z,16.58
2018-09-24T10:21:20.756Z,16.56
2018-09-24T10:22:20.749Z,16.47
2018-09-24T10:23:20.736Z,16.35
2018-09-24T10:24:20.755Z,16.23
2018-09-24T10:25:20.740Z,16.28
2018-09-24T10:26:20.716Z,16.42
2018-09-24T10:27:20.687Z,16.50
2018-09-24T10:28:20.684Z,16.39
2018-09-24T10:29:20.693Z,16.00
2018-09-24T10:30:20.679Z,15.79
2018-09-24T10:31:20.650Z,15.59
2018-09-24T10:32:20.639Z,15.47
2018-09-24T10:33:20.635Z,15.76
2018-09-24T10:34:20.611Z,15.84
2018-09-24T10:35:20.615Z,15.86
2018-09-24T10:36:20.628Z,15.57
2018-09-24T10:37:20.590Z,15.98
2018-09-24T10:38:20.569Z,16.28
2018-09-24T10:39:20.560Z,16.43
2018-09-24T10:40:20.552Z,16.54
2018-09-24T10:41:20.632Z,16.68
2018-09-24T10:42:20.521Z,16.42
2018-09-24T10:43:20.514Z,16.32
2018-09-24T10:44:20.501Z,16.72
2018-09-24T10:45:20.500Z,16.41
2018-09-24T10:46:20.508Z,15.83
2018-09-24T10:47:20.482Z,15.44
2018-09-24T10:48:20.458Z,15.49
2018-09-24T10:49:20.451Z,15.35
2018-09-24T10:50:20.437Z,15.19
2018-09-24T10:51:20.462Z,15.46
2018-09-24T10:52:20.416Z,15.27
2018-09-24T10:53:20.405Z,15.51
2018-09-24T10:54:20.394Z,15.55
2018-09-24T10:55:20.390Z,15.25
2018-09-24T10:56:20.389Z,15.19
2018-09-24T10:57:20.405Z,15.36
2018-09-24T10:58:20.352Z,15.43
2018-09-24T10:59:20.381Z,15.54
2018-09-24T11:00:20.334Z,15.43
2018-09-24T11:01:20.321Z,15.47
2018-09-24T11:02:20.328Z,15.47
2018-09-24T11:03:20.314Z,15.42
2018-09-24T11:04:20.302Z,15.51
2018-09-24T11:05:20.272Z,15.55
2018-09-24T11:06:20.266Z,15.68
2018-09-24T11:07:21.358Z,15.64
2018-09-24T11:08:20.237Z,15.58
2018-09-24T11:09:20.233Z,15.94
2018-09-24T11:10:20.294Z,15.62
2018-09-24T11:11:20.326Z,15.43
2018-09-24T11:12:20.224Z,15.14
2018-09-24T11:13:20.189Z,14.99
2018-09-24T11:14:20.181Z,14.88
2018-09-24T11:15:20.185Z,14.86
2018-09-24T11:16:20.254Z,15.22
2018-09-24T11:17:20.263Z,15.43
2018-09-24T11:18:20.207Z,15.58
2018-09-24T11:19:20.149Z,15.58
2018-09-24T11:20:20.141Z,15.62
2018-09-24T11:21:20.107Z,15.47
2018-09-24T11:22:20.144Z,15.43
2018-09-24T11:23:20.087Z,15.46
2018-09-24T11:24:20.062Z,15.59
2018-09-24T11:25:20.047Z,15.67
2018-09-24T11:27:21.023Z,15.98
2018-09-24T11:28:20.034Z,15.98
2018-09-24T11:29:20.288Z,15.91
2018-09-24T11:30:20.002Z,15.67
2018-09-24T11:31:19.984Z,15.47
2018-09-24T11:32:19.972Z,15.22
2018-09-24T11:33:19.984Z,14.69
2018-09-24T11:34:19.954Z,14.44
2018-09-24T11:35:19.937Z,14.18
2018-09-24T11:36:19.939Z,13.93
2018-09-24T11:37:19.930Z,13.67
2018-09-24T11:38:19.936Z,13.62
2018-09-24T11:39:19.895Z,13.49
2018-09-24T11:40:19.928Z,13.39
2018-09-24T11:41:19.869Z,13.28
2018-09-24T11:42:19.857Z,13.22
2018-09-24T11:43:19.896Z,13.38
2018-09-24T11:44:19.857Z,13.59
2018-09-24T11:45:19.830Z,13.65
2018-09-24T11:46:19.816Z,13.89
2018-09-24T11:47:19.823Z,13.78
2018-09-24T11:48:19.815Z,13.54
2018-09-24T11:49:19.803Z,13.54
2018-09-24T11:50:19.783Z,13.41
2018-09-24T11:51:19.779Z,13.42
2018-09-24T11:52:19.750Z,13.77
2018-09-24T11:53:19.796Z,13.87
2018-09-24T11:54:19.729Z,14.04
2018-09-24T11:55:19.735Z,14.36
2018-09-24T11:56:19.738Z,14.55
2018-09-24T11:57:19.699Z,14.68
2018-09-24T11:58:19.708Z,14.97
2018-09-24T11:59:19.690Z,15.18
2018-09-24T12:00:19.665Z,15.22
2018-09-24T12:01:19.658Z,15.55
2018-09-24T12:02:19.682Z,15.77
2018-09-24T12:03:19.631Z,16.02
2018-09-24T12:04:19.641Z,16.00
2018-09-24T12:05:19.634Z,15.73
2018-09-24T12:06:19.616Z,15.65
2018-09-24T12:07:19.608Z,15.82
2018-09-24T12:08:19.575Z,16.02
2018-09-24T12:09:19.602Z,16.26
2018-09-24T12:10:19.573Z,16.16
2018-09-24T12:11:19.545Z,15.84
2018-09-24T12:12:19.537Z,15.49
2018-09-24T12:13:19.532Z,15.28
2018-09-24T12:14:19.565Z,15.17
2018-09-24T12:15:19.498Z,15.03
2018-09-24T12:16:19.504Z,14.96
2018-09-24T12:17:19.510Z,14.81
2018-09-24T12:18:19.469Z,14.55
2018-09-24T12:19:19.497Z,14.25
2018-09-24T12:20:19.447Z,14.07
2018-09-24T12:21:19.449Z,14.11
2018-09-24T12:22:19.454Z,13.89
2018-09-24T12:24:20.597Z,13.65
2018-09-24T12:25:19.397Z,13.56
2018-09-24T12:26:19.385Z,13.54
2018-09-24T12:27:19.383Z,13.65
2018-09-24T12:28:19.358Z,13.68
2018-09-24T12:29:19.363Z,13.81
2018-09-24T12:30:19.366Z,13.90
2018-09-24T12:31:19.329Z,14.03
2018-09-24T12:32:19.320Z,14.07
2018-09-24T12:33:19.312Z,14.33
2018-09-24T12:34:19.294Z,14.29
2018-09-24T12:35:19.300Z,14.25
2018-09-24T12:36:19.290Z,14.48
2018-09-24T12:37:19.258Z,14.55
2018-09-24T12:38:19.263Z,14.62
2018-09-24T12:39:19.314Z,14.70
2018-09-24T12:40:19.253Z,14.79
2018-09-24T12:41:19.231Z,14.82
2018-09-24T12:42:19.225Z,15.07
2018-09-24T12:43:19.271Z,15.15
2018-09-24T12:44:19.202Z,15.17
2018-09-24T12:45:19.185Z,15.31
2018-09-24T12:46:19.183Z,15.37
2018-09-24T12:47:19.178Z,15.42
2018-09-24T12:48:19.166Z,15.52
2018-09-24T12:49:19.132Z,15.65
2018-09-24T12:50:19.148Z,15.58
2018-09-24T12:51:19.107Z,15.52
2018-09-24T12:52:19.113Z,15.42
2018-09-24T12:53:19.128Z,15.29
2018-09-24T12:54:19.080Z,15.09
2018-09-24T12:55:19.063Z,14.96
2018-09-24T12:56:19.077Z,14.79
2018-09-24T12:57:19.065Z,14.78
2018-09-24T12:58:19.035Z,14.73
2018-09-24T12:59:19.022Z,14.73
2018-09-24T13:00:19.016Z,14.65
2018-09-24T13:01:19.067Z,14.63
2018-09-24T13:02:18.983Z,14.53
2018-09-24T13:03:18.977Z,14.25
2018-09-24T13:04:18.965Z,14.22
2018-09-24T13:05:18.951Z,14.32
2018-09-24T13:06:18.956Z,14.45
2018-09-24T13:07:18.937Z,14.66
2018-09-24T13:08:18.976Z,14.73
2018-09-24T13:09:18.931Z,14.89
2018-09-24T13:10:18.918Z,14.94
2018-09-24T13:11:18.963Z,15.09
2018-09-24T13:12:18.879Z,15.28
2018-09-24T13:14:19.993Z,15.25
2018-09-24T13:15:18.853Z,15.37
2018-09-24T13:16:18.859Z,15.44
2018-09-24T13:17:18.890Z,15.37
2018-09-24T13:18:18.809Z,15.46
2018-09-24T13:19:18.808Z,15.42
2018-09-24T13:20:18.797Z,15.15
2018-09-24T13:21:18.806Z,15.06
2018-09-24T13:22:18.783Z,14.96
2018-09-24T13:23:18.789Z,14.91